sensor_id;sensor_type;location;lat;lon;timestamp;pressure;altitude;pressure_sealevel;temperature;humidity
55347;BME280;41218;55.700;38.270;2023-04-30T00:01:57;100238.91;;;2.44;59.99
55347;BME280;41218;55.700;38.270;2023-04-30T00:06:57;100242.03;;;2.37;60.42
55347;BME280;41218;55.700;38.270;2023-04-30T00:11:58;100237.97;;;2.35;60.05
55347;BME280;41218;55.700;38.270;2023-04-30T00:16:59;100229.19;;;2.24;60.33
55347;BME280;41218;55.700;38.270;2023-04-30T00:21:59;100245.56;;;2.24;60.66
55347;BME280;41218;55.700;38.270;2023-04-30T00:27:04;100255.16;;;2.22;60.32
55347;BME280;41218;55.700;38.270;2023-04-30T00:32:05;100263.41;;;2.16;60.66
55347;BME280;41218;55.700;38.270;2023-04-30T00:37:05;100264.91;;;2.09;60.66
55347;BME280;41218;55.700;38.270;2023-04-30T00:42:06;100244.50;;;1.92;60.53
55347;BME280;41218;55.700;38.270;2023-04-30T00:47:06;100259.06;;;2.02;60.92
55347;BME280;41218;55.700;38.270;2023-04-30T00:52:07;100266.72;;;1.99;60.69
55347;BME280;41218;55.700;38.270;2023-04-30T00:57:11;100258.94;;;1.93;61.01
55347;BME280;41218;55.700;38.270;2023-04-30T01:02:13;100266.91;;;1.89;60.72
55347;BME280;41218;55.700;38.270;2023-04-30T01:07:14;100262.88;;;1.87;61.13
55347;BME280;41218;55.700;38.270;2023-04-30T01:12:31;100264.88;;;1.81;61.28
55347;BME280;41218;55.700;38.270;2023-04-30T01:22:45;100260.91;;;1.73;61.04
55347;BME280;41218;55.700;38.270;2023-04-30T01:33:01;100252.47;;;1.56;60.90
55347;BME280;41218;55.700;38.270;2023-04-30T01:43:44;100272.88;;;1.58;61.29
55347;BME280;41218;55.700;38.270;2023-04-30T01:49:11;100281.34;;;1.57;61.93
55347;BME280;41218;55.700;38.270;2023-04-30T01:59:42;100272.72;;;1.50;61.24
55347;BME280;41218;55.700;38.270;2023-04-30T02:04:44;100270.59;;;1.47;61.49
55347;BME280;41218;55.700;38.270;2023-04-30T02:09:45;100270.38;;;1.43;61.40
55347;BME280;41218;55.700;38.270;2023-04-30T02:14:45;100267.44;;;1.39;61.41
55347;BME280;41218;55.700;38.270;2023-04-30T02:19:46;100272.59;;;1.41;61.25
55347;BME280;41218;55.700;38.270;2023-04-30T02:24:46;100261.69;;;1.41;61.63
55347;BME280;41218;55.700;38.270;2023-04-30T02:29:47;100245.72;;;1.34;61.44
55347;BME280;41218;55.700;38.270;2023-04-30T02:34:47;100253.69;;;1.31;61.70
55347;BME280;41218;55.700;38.270;2023-04-30T02:39:48;100242.56;;;1.27;61.48
55347;BME280;41218;55.700;38.270;2023-04-30T02:44:48;100242.56;;;1.27;61.70
55347;BME280;41218;55.700;38.270;2023-04-30T02:49:49;100235.00;;;1.24;61.83
55347;BME280;41218;55.700;38.270;2023-04-30T02:54:49;100244.47;;;1.27;62.02
55347;BME280;41218;55.700;38.270;2023-04-30T02:59:50;100236.09;;;1.23;62.05
55347;BME280;41218;55.700;38.270;2023-04-30T03:04:50;100234.38;;;1.27;62.36
55347;BME280;41218;55.700;38.270;2023-04-30T03:09:51;100238.75;;;1.28;62.41
55347;BME280;41218;55.700;38.270;2023-04-30T03:14:51;100235.13;;;1.33;62.59
55347;BME280;41218;55.700;38.270;2023-04-30T03:19:52;100238.66;;;1.33;62.56
55347;BME280;41218;55.700;38.270;2023-04-30T03:24:53;100235.88;;;1.38;62.47
55347;BME280;41218;55.700;38.270;2023-04-30T03:29:53;100221.63;;;1.42;62.84
55347;BME280;41218;55.700;38.270;2023-04-30T03:34:54;100221.84;;;1.45;63.31
55347;BME280;41218;55.700;38.270;2023-04-30T03:39:54;100217.94;;;1.51;63.50
55347;BME280;41218;55.700;38.270;2023-04-30T03:44:55;100202.63;;;1.55;63.87
55347;BME280;41218;55.700;38.270;2023-04-30T03:49:55;100203.34;;;1.61;64.41
55347;BME280;41218;55.700;38.270;2023-04-30T03:54:56;100190.13;;;1.68;64.54
55347;BME280;41218;55.700;38.270;2023-04-30T03:59:57;100197.31;;;1.78;64.85
55347;BME280;41218;55.700;38.270;2023-04-30T04:04:57;100193.19;;;1.94;65.65
55347;BME280;41218;55.700;38.270;2023-04-30T04:09:58;100182.31;;;2.08;66.07
55347;BME280;41218;55.700;38.270;2023-04-30T04:14:59;100191.50;;;2.26;66.01
55347;BME280;41218;55.700;38.270;2023-04-30T04:19:59;100191.00;;;2.38;66.17
55347;BME280;41218;55.700;38.270;2023-04-30T04:25:00;100184.13;;;2.54;66.48
55347;BME280;41218;55.700;38.270;2023-04-30T04:30:02;100173.69;;;2.70;66.92
55347;BME280;41218;55.700;38.270;2023-04-30T04:35:03;100151.31;;;2.82;66.94
55347;BME280;41218;55.700;38.270;2023-04-30T04:40:04;100165.34;;;3.12;67.64
55347;BME280;41218;55.700;38.270;2023-04-30T04:45:05;100172.06;;;3.51;68.07
55347;BME280;41218;55.700;38.270;2023-04-30T04:50:07;100182.84;;;3.87;68.38
55347;BME280;41218;55.700;38.270;2023-04-30T04:55:08;100171.75;;;4.24;68.70
55347;BME280;41218;55.700;38.270;2023-04-30T05:00:09;100167.19;;;4.59;68.80
55347;BME280;41218;55.700;38.270;2023-04-30T05:05:11;100160.28;;;4.96;68.33
55347;BME280;41218;55.700;38.270;2023-04-30T05:10:11;100150.44;;;5.30;68.23
55347;BME280;41218;55.700;38.270;2023-04-30T05:15:12;100154.09;;;5.60;67.96
55347;BME280;41218;55.700;38.270;2023-04-30T05:20:12;100133.66;;;5.88;67.77
55347;BME280;41218;55.700;38.270;2023-04-30T05:25:13;100148.72;;;6.20;67.55
55347;BME280;41218;55.700;38.270;2023-04-30T05:30:13;100144.56;;;6.44;67.05
55347;BME280;41218;55.700;38.270;2023-04-30T05:35:17;100144.06;;;6.71;67.13
55347;BME280;41218;55.700;38.270;2023-04-30T05:40:18;100134.94;;;7.00;66.85
55347;BME280;41218;55.700;38.270;2023-04-30T05:45:18;100127.25;;;7.27;66.16
55347;BME280;41218;55.700;38.270;2023-04-30T05:50:19;100133.31;;;7.54;65.92
55347;BME280;41218;55.700;38.270;2023-04-30T05:55:19;100119.81;;;7.73;65.00
55347;BME280;41218;55.700;38.270;2023-04-30T06:00:20;100123.75;;;7.97;64.25
55347;BME280;41218;55.700;38.270;2023-04-30T06:05:20;100110.00;;;8.09;63.76
55347;BME280;41218;55.700;38.270;2023-04-30T06:10:25;100143.63;;;8.39;63.14
55347;BME280;41218;55.700;38.270;2023-04-30T06:15:26;100135.44;;;8.55;62.79
55347;BME280;41218;55.700;38.270;2023-04-30T06:20:26;100133.59;;;8.72;62.19
55347;BME280;41218;55.700;38.270;2023-04-30T06:25:27;100143.44;;;8.85;61.46
55347;BME280;41218;55.700;38.270;2023-04-30T06:30:27;100137.09;;;8.97;60.89
55347;BME280;41218;55.700;38.270;2023-04-30T06:35:29;100146.91;;;9.10;60.12
55347;BME280;41218;55.700;38.270;2023-04-30T06:40:30;100146.06;;;9.22;59.94
55347;BME280;41218;55.700;38.270;2023-04-30T06:45:30;100145.22;;;9.34;59.50
55347;BME280;41218;55.700;38.270;2023-04-30T06:50:31;100145.06;;;9.42;59.19
55347;BME280;41218;55.700;38.270;2023-04-30T06:55:31;100136.63;;;9.51;58.66
55347;BME280;41218;55.700;38.270;2023-04-30T07:00:33;100134.34;;;9.53;57.96
55347;BME280;41218;55.700;38.270;2023-04-30T07:05:39;100120.59;;;9.57;57.02
55347;BME280;41218;55.700;38.270;2023-04-30T07:10:40;100107.97;;;9.56;57.29
55347;BME280;41218;55.700;38.270;2023-04-30T07:15:41;100106.31;;;9.67;56.60
55347;BME280;41218;55.700;38.270;2023-04-30T07:20:42;100100.69;;;9.79;56.25
55347;BME280;41218;55.700;38.270;2023-04-30T07:25:42;100107.28;;;9.91;55.78
55347;BME280;41218;55.700;38.270;2023-04-30T07:30:43;100101.50;;;9.96;55.79
55347;BME280;41218;55.700;38.270;2023-04-30T07:35:43;100073.00;;;9.92;54.68
55347;BME280;41218;55.700;38.270;2023-04-30T07:40:44;100073.25;;;10.02;54.10
55347;BME280;41218;55.700;38.270;2023-04-30T07:45:44;100058.66;;;10.02;54.35
55347;BME280;41218;55.700;38.270;2023-04-30T07:50:48;100045.16;;;10.16;53.50
55347;BME280;41218;55.700;38.270;2023-04-30T07:55:49;100030.78;;;10.27;53.91
55347;BME280;41218;55.700;38.270;2023-04-30T08:00:49;100021.16;;;10.36;53.46
55347;BME280;41218;55.700;38.270;2023-04-30T08:05:51;100016.44;;;10.37;51.70
55347;BME280;41218;55.700;38.270;2023-04-30T08:10:51;100001.88;;;10.40;52.57
55347;BME280;41218;55.700;38.270;2023-04-30T08:15:52;99974.25;;;10.40;52.06
55347;BME280;41218;55.700;38.270;2023-04-30T08:20:52;99953.59;;;10.34;51.75
55347;BME280;41218;55.700;38.270;2023-04-30T08:25:53;99950.19;;;10.40;51.79
55347;BME280;41218;55.700;38.270;2023-04-30T08:30:54;99943.94;;;10.43;51.50
55347;BME280;41218;55.700;38.270;2023-04-30T08:35:54;99919.50;;;10.46;51.17
55347;BME280;41218;55.700;38.270;2023-04-30T08:41:04;99917.31;;;10.35;50.67
55347;BME280;41218;55.700;38.270;2023-04-30T08:46:07;99911.56;;;10.44;51.10
55347;BME280;41218;55.700;38.270;2023-04-30T08:51:08;99913.09;;;10.41;50.79
55347;BME280;41218;55.700;38.270;2023-04-30T08:56:09;99893.47;;;10.47;50.59
55347;BME280;41218;55.700;38.270;2023-04-30T09:01:10;99882.72;;;10.41;50.47
55347;BME280;41218;55.700;38.270;2023-04-30T09:06:15;99888.31;;;10.45;50.40
55347;BME280;41218;55.700;38.270;2023-04-30T09:11:26;99870.63;;;10.50;49.67
55347;BME280;41218;55.700;38.270;2023-04-30T09:16:27;99874.16;;;10.70;49.95
55347;BME280;41218;55.700;38.270;2023-04-30T09:21:33;99860.22;;;10.86;50.10
55347;BME280;41218;55.700;38.270;2023-04-30T09:26:36;99861.84;;;11.13;49.61
55347;BME280;41218;55.700;38.270;2023-04-30T09:31:40;99855.72;;;11.27;49.39
55347;BME280;41218;55.700;38.270;2023-04-30T09:36:52;99852.78;;;11.39;48.17
55347;BME280;41218;55.700;38.270;2023-04-30T09:42:06;99839.88;;;11.51;48.62
55347;BME280;41218;55.700;38.270;2023-04-30T09:47:18;99820.25;;;11.63;48.37
55347;BME280;41218;55.700;38.270;2023-04-30T09:52:20;99809.72;;;11.76;47.79
55347;BME280;41218;55.700;38.270;2023-04-30T09:57:22;99810.81;;;11.94;48.38
55347;BME280;41218;55.700;38.270;2023-04-30T10:02:23;99814.47;;;12.06;48.08
55347;BME280;41218;55.700;38.270;2023-04-30T10:07:30;99807.44;;;12.12;47.12
55347;BME280;41218;55.700;38.270;2023-04-30T10:12:59;99812.97;;;12.12;47.29
55347;BME280;41218;55.700;38.270;2023-04-30T10:18:22;99812.97;;;12.12;46.33
55347;BME280;41218;55.700;38.270;2023-04-30T10:23:28;99799.84;;;12.05;47.36
55347;BME280;41218;55.700;38.270;2023-04-30T10:28:29;99813.75;;;12.12;47.51
55347;BME280;41218;55.700;38.270;2023-04-30T10:38:49;99820.91;;;12.13;47.74
55347;BME280;41218;55.700;38.270;2023-04-30T10:43:55;99837.50;;;12.10;47.15
55347;BME280;41218;55.700;38.270;2023-04-30T10:48:56;99839.84;;;12.08;47.62
55347;BME280;41218;55.700;38.270;2023-04-30T10:53:56;99834.25;;;12.04;47.57
55347;BME280;41218;55.700;38.270;2023-04-30T10:59:00;99816.00;;;11.99;47.35
55347;BME280;41218;55.700;38.270;2023-04-30T11:04:09;99806.84;;;11.95;47.31
55347;BME280;41218;55.700;38.270;2023-04-30T11:09:10;99799.69;;;11.91;47.69
55347;BME280;41218;55.700;38.270;2023-04-30T11:14:11;99780.56;;;11.82;47.71
55347;BME280;41218;55.700;38.270;2023-04-30T11:19:12;99773.41;;;11.81;47.71
55347;BME280;41218;55.700;38.270;2023-04-30T11:24:13;99765.91;;;11.81;47.93
55347;BME280;41218;55.700;38.270;2023-04-30T11:29:14;99758.63;;;11.66;47.40
55347;BME280;41218;55.700;38.270;2023-04-30T11:34:16;99754.13;;;11.54;47.26
55347;BME280;41218;55.700;38.270;2023-04-30T11:39:16;99750.44;;;11.47;47.35
55347;BME280;41218;55.700;38.270;2023-04-30T11:44:35;99744.25;;;11.57;47.51
55347;BME280;41218;55.700;38.270;2023-04-30T11:49:37;99719.16;;;11.42;47.53
55347;BME280;41218;55.700;38.270;2023-04-30T11:54:38;99711.09;;;11.30;47.72
55347;BME280;41218;55.700;38.270;2023-04-30T11:59:39;99722.13;;;11.27;47.88
55347;BME280;41218;55.700;38.270;2023-04-30T12:04:44;99715.75;;;11.22;47.66
55347;BME280;41218;55.700;38.270;2023-04-30T12:09:54;99716.81;;;11.14;48.12
55347;BME280;41218;55.700;38.270;2023-04-30T12:14:55;99730.22;;;11.12;48.12
55347;BME280;41218;55.700;38.270;2023-04-30T12:19:56;99720.28;;;11.08;48.24
55347;BME280;41218;55.700;38.270;2023-04-30T12:24:58;99720.25;;;11.04;48.14
55347;BME280;41218;55.700;38.270;2023-04-30T12:30:06;99709.19;;;11.04;48.63
55347;BME280;41218;55.700;38.270;2023-04-30T12:35:14;99712.38;;;11.06;48.59
55347;BME280;41218;55.700;38.270;2023-04-30T12:40:15;99712.38;;;11.06;48.63
55347;BME280;41218;55.700;38.270;2023-04-30T12:45:42;99718.69;;;11.07;48.22
55347;BME280;41218;55.700;38.270;2023-04-30T12:50:49;99706.78;;;11.02;48.59
55347;BME280;41218;55.700;38.270;2023-04-30T12:56:16;99700.44;;;11.02;48.40
55347;BME280;41218;55.700;38.270;2023-04-30T13:01:21;99704.41;;;11.01;48.68
55347;BME280;41218;55.700;38.270;2023-04-30T13:06:23;99711.50;;;11.02;48.93
55347;BME280;41218;55.700;38.270;2023-04-30T13:11:23;99711.50;;;11.02;49.08
55347;BME280;41218;55.700;38.270;2023-04-30T13:16:25;99693.28;;;10.97;49.02
55347;BME280;41218;55.700;38.270;2023-04-30T13:21:25;99691.69;;;10.96;49.32
55347;BME280;41218;55.700;38.270;2023-04-30T13:26:27;99687.84;;;11.05;49.22
55347;BME280;41218;55.700;38.270;2023-04-30T13:31:27;99677.00;;;10.92;49.31
55347;BME280;41218;55.700;38.270;2023-04-30T13:36:28;99671.53;;;10.96;49.42
55347;BME280;41218;55.700;38.270;2023-04-30T13:41:28;99671.16;;;10.97;49.80
55347;BME280;41218;55.700;38.270;2023-04-30T13:46:29;99649.34;;;10.92;49.91
55347;BME280;41218;55.700;38.270;2023-04-30T13:51:29;99645.38;;;10.90;50.07
55347;BME280;41218;55.700;38.270;2023-04-30T13:56:30;99628.72;;;10.86;50.17
55347;BME280;41218;55.700;38.270;2023-04-30T14:01:31;99621.22;;;10.87;50.25
55347;BME280;41218;55.700;38.270;2023-04-30T14:06:32;99606.66;;;10.90;50.27
55347;BME280;41218;55.700;38.270;2023-04-30T14:11:33;99607.31;;;10.79;50.30
55347;BME280;41218;55.700;38.270;2023-04-30T14:16:33;99591.81;;;10.71;50.43
55347;BME280;41218;55.700;38.270;2023-04-30T14:21:34;99581.91;;;10.70;50.43
55347;BME280;41218;55.700;38.270;2023-04-30T14:26:35;99584.25;;;10.68;50.10
55347;BME280;41218;55.700;38.270;2023-04-30T14:31:35;99556.19;;;10.66;50.59
55347;BME280;41218;55.700;38.270;2023-04-30T14:36:36;99545.56;;;10.68;50.83
55347;BME280;41218;55.700;38.270;2023-04-30T14:41:37;99541.16;;;10.63;50.73
55347;BME280;41218;55.700;38.270;2023-04-30T14:46:38;99534.00;;;10.59;50.70
55347;BME280;41218;55.700;38.270;2023-04-30T14:51:38;99514.91;;;10.47;50.92
55347;BME280;41218;55.700;38.270;2023-04-30T14:56:39;99498.69;;;10.45;50.95
55347;BME280;41218;55.700;38.270;2023-04-30T15:01:40;99497.06;;;10.44;51.26
55347;BME280;41218;55.700;38.270;2023-04-30T15:06:41;99489.88;;;10.36;51.41
55347;BME280;41218;55.700;38.270;2023-04-30T15:11:42;99486.22;;;10.28;51.78
55347;BME280;41218;55.700;38.270;2023-04-30T15:16:42;99494.06;;;10.26;51.91
55347;BME280;41218;55.700;38.270;2023-04-30T15:21:43;99494.88;;;10.27;52.27
55347;BME280;41218;55.700;38.270;2023-04-30T15:26:43;99499.50;;;10.19;52.94
55347;BME280;41218;55.700;38.270;2023-04-30T15:31:44;99472.41;;;10.01;53.33
55347;BME280;41218;55.700;38.270;2023-04-30T15:36:45;99480.59;;;9.94;53.97
55347;BME280;41218;55.700;38.270;2023-04-30T15:41:45;99478.53;;;9.88;54.36
55347;BME280;41218;55.700;38.270;2023-04-30T15:46:46;99467.81;;;9.82;54.55
55347;BME280;41218;55.700;38.270;2023-04-30T15:51:47;99458.16;;;9.69;55.27
55347;BME280;41218;55.700;38.270;2023-04-30T15:56:47;99441.91;;;9.64;55.77
55347;BME280;41218;55.700;38.270;2023-04-30T16:01:48;99446.88;;;9.55;56.18
55347;BME280;41218;55.700;38.270;2023-04-30T16:06:48;99423.84;;;9.43;56.51
55347;BME280;41218;55.700;38.270;2023-04-30T16:11:49;99386.56;;;9.27;57.52
55347;BME280;41218;55.700;38.270;2023-04-30T16:16:50;99379.56;;;9.10;58.02
55347;BME280;41218;55.700;38.270;2023-04-30T16:21:51;99368.06;;;9.04;58.53
55347;BME280;41218;55.700;38.270;2023-04-30T16:26:52;99364.75;;;8.95;58.73
55347;BME280;41218;55.700;38.270;2023-04-30T16:31:52;99361.88;;;8.88;59.23
55347;BME280;41218;55.700;38.270;2023-04-30T16:36:53;99356.13;;;8.73;59.61
55347;BME280;41218;55.700;38.270;2023-04-30T16:41:53;99357.59;;;8.67;59.85
55347;BME280;41218;55.700;38.270;2023-04-30T16:46:54;99340.34;;;8.70;59.99
55347;BME280;41218;55.700;38.270;2023-04-30T16:51:58;99337.09;;;8.65;60.37
55347;BME280;41218;55.700;38.270;2023-04-30T16:56:59;99340.19;;;8.63;60.63
55347;BME280;41218;55.700;38.270;2023-04-30T17:01:59;99322.69;;;8.52;60.78
55347;BME280;41218;55.700;38.270;2023-04-30T17:07:01;99312.34;;;8.45;61.48
55347;BME280;41218;55.700;38.270;2023-04-30T17:12:02;99304.47;;;8.44;61.48
55347;BME280;41218;55.700;38.270;2023-04-30T17:17:04;99304.34;;;8.40;61.65
55347;BME280;41218;55.700;38.270;2023-04-30T17:22:05;99312.41;;;8.29;62.15
55347;BME280;41218;55.700;38.270;2023-04-30T17:27:06;99322.19;;;8.27;62.27
55347;BME280;41218;55.700;38.270;2023-04-30T17:32:07;99308.84;;;8.29;62.26
55347;BME280;41218;55.700;38.270;2023-04-30T17:37:09;99302.06;;;8.22;62.75
55347;BME280;41218;55.700;38.270;2023-04-30T17:42:09;99271.59;;;8.12;62.65
55347;BME280;41218;55.700;38.270;2023-04-30T17:47:10;99261.38;;;8.12;63.33
55347;BME280;41218;55.700;38.270;2023-04-30T17:52:11;99255.00;;;8.08;63.49
55347;BME280;41218;55.700;38.270;2023-04-30T17:57:11;99226.06;;;7.95;63.65
55347;BME280;41218;55.700;38.270;2023-04-30T18:02:12;99228.81;;;7.95;64.15
55347;BME280;41218;55.700;38.270;2023-04-30T18:07:12;99238.59;;;7.92;64.20
55347;BME280;41218;55.700;38.270;2023-04-30T18:12:13;99215.50;;;7.77;64.75
55347;BME280;41218;55.700;38.270;2023-04-30T18:17:13;99183.34;;;7.58;64.98
55347;BME280;41218;55.700;38.270;2023-04-30T18:22:14;99192.66;;;7.73;64.86
55347;BME280;41218;55.700;38.270;2023-04-30T18:27:15;99217.75;;;7.91;64.80
55347;BME280;41218;55.700;38.270;2023-04-30T18:32:15;99209.41;;;7.88;64.96
55347;BME280;41218;55.700;38.270;2023-04-30T18:37:16;99209.34;;;7.84;65.01
55347;BME280;41218;55.700;38.270;2023-04-30T18:42:17;99198.69;;;7.82;65.25
55347;BME280;41218;55.700;38.270;2023-04-30T18:47:17;99183.22;;;7.74;65.73
55347;BME280;41218;55.700;38.270;2023-04-30T18:52:18;99182.78;;;7.72;65.66
55347;BME280;41218;55.700;38.270;2023-04-30T18:57:18;99174.97;;;7.74;65.95
55347;BME280;41218;55.700;38.270;2023-04-30T19:02:19;99174.19;;;7.74;65.87
55347;BME280;41218;55.700;38.270;2023-04-30T19:07:21;99166.25;;;7.69;65.99
55347;BME280;41218;55.700;38.270;2023-04-30T19:12:21;99158.78;;;7.69;66.09
55347;BME280;41218;55.700;38.270;2023-04-30T19:17:22;99146.91;;;7.65;66.27
55347;BME280;41218;55.700;38.270;2023-04-30T19:22:22;99152.84;;;7.67;66.28
55347;BME280;41218;55.700;38.270;2023-04-30T19:27:23;99140.63;;;7.65;66.22
55347;BME280;41218;55.700;38.270;2023-04-30T19:32:24;99133.44;;;7.60;66.43
55347;BME280;41218;55.700;38.270;2023-04-30T19:37:25;99127.16;;;7.59;66.56
55347;BME280;41218;55.700;38.270;2023-04-30T19:42:26;99108.16;;;7.51;66.47
55347;BME280;41218;55.700;38.270;2023-04-30T19:47:26;99097.16;;;7.51;67.19
55347;BME280;41218;55.700;38.270;2023-04-30T19:52:27;99095.50;;;7.46;67.04
55347;BME280;41218;55.700;38.270;2023-04-30T19:57:27;99093.03;;;7.41;67.60
55347;BME280;41218;55.700;38.270;2023-04-30T20:02:32;99099.31;;;7.41;67.81
55347;BME280;41218;55.700;38.270;2023-04-30T20:07:32;99067.06;;;7.38;67.51
55347;BME280;41218;55.700;38.270;2023-04-30T20:12:33;99063.22;;;7.43;67.59
55347;BME280;41218;55.700;38.270;2023-04-30T20:17:33;99061.69;;;7.46;67.58
55347;BME280;41218;55.700;38.270;2023-04-30T20:22:35;99056.69;;;7.51;67.48
55347;BME280;41218;55.700;38.270;2023-04-30T20:27:35;99048.88;;;7.53;67.34
55347;BME280;41218;55.700;38.270;2023-04-30T20:32:36;99032.28;;;7.50;67.29
55347;BME280;41218;55.700;38.270;2023-04-30T20:37:38;99029.13;;;7.48;67.64
55347;BME280;41218;55.700;38.270;2023-04-30T20:42:38;99017.69;;;7.46;67.79
55347;BME280;41218;55.700;38.270;2023-04-30T20:47:39;99024.72;;;7.43;67.50
55347;BME280;41218;55.700;38.270;2023-04-30T20:52:40;98991.16;;;7.34;68.02
55347;BME280;41218;55.700;38.270;2023-04-30T20:57:40;98984.88;;;7.33;68.04
55347;BME280;41218;55.700;38.270;2023-04-30T21:02:41;98982.56;;;7.35;68.01
55347;BME280;41218;55.700;38.270;2023-04-30T21:07:42;98969.59;;;7.36;67.74
55347;BME280;41218;55.700;38.270;2023-04-30T21:12:42;98968.47;;;7.37;68.06
55347;BME280;41218;55.700;38.270;2023-04-30T21:17:43;98962.91;;;7.33;68.71
55347;BME280;41218;55.700;38.270;2023-04-30T21:22:44;98965.97;;;7.28;68.65
55347;BME280;41218;55.700;38.270;2023-04-30T21:27:44;98981.78;;;7.35;68.33
55347;BME280;41218;55.700;38.270;2023-04-30T21:32:45;98964.50;;;7.34;68.63
55347;BME280;41218;55.700;38.270;2023-04-30T21:37:49;98936.44;;;7.25;68.66
55347;BME280;41218;55.700;38.270;2023-04-30T21:42:49;98933.63;;;7.21;68.64
55347;BME280;41218;55.700;38.270;2023-04-30T21:47:51;98960.25;;;7.17;69.09
55347;BME280;41218;55.700;38.270;2023-04-30T21:52:52;98948.13;;;7.18;68.94
55347;BME280;41218;55.700;38.270;2023-04-30T21:57:52;98965.13;;;7.24;69.24
55347;BME280;41218;55.700;38.270;2023-04-30T22:02:53;98959.97;;;7.22;68.92
55347;BME280;41218;55.700;38.270;2023-04-30T22:07:53;98975.28;;;7.23;69.40
55347;BME280;41218;55.700;38.270;2023-04-30T22:12:54;98974.56;;;7.27;68.90
55347;BME280;41218;55.700;38.270;2023-04-30T22:17:55;98971.81;;;7.27;69.34
55347;BME280;41218;55.700;38.270;2023-04-30T22:22:55;98956.91;;;7.28;69.52
55347;BME280;41218;55.700;38.270;2023-04-30T22:27:56;98944.41;;;7.30;69.14
55347;BME280;41218;55.700;38.270;2023-04-30T22:32:56;98937.38;;;7.33;69.04
55347;BME280;41218;55.700;38.270;2023-04-30T22:37:58;98947.69;;;7.39;69.44
55347;BME280;41218;55.700;38.270;2023-04-30T22:43:00;98946.47;;;7.37;69.06
55347;BME280;41218;55.700;38.270;2023-04-30T22:48:01;98942.94;;;7.36;69.22
55347;BME280;41218;55.700;38.270;2023-04-30T22:53:02;98937.38;;;7.33;69.43
55347;BME280;41218;55.700;38.270;2023-04-30T22:58:02;98907.91;;;7.33;69.54
55347;BME280;41218;55.700;38.270;2023-04-30T23:03:03;98911.50;;;7.37;69.40
55347;BME280;41218;55.700;38.270;2023-04-30T23:08:04;98905.22;;;7.37;69.22
55347;BME280;41218;55.700;38.270;2023-04-30T23:13:04;98898.44;;;7.31;69.37
55347;BME280;41218;55.700;38.270;2023-04-30T23:18:05;98900.41;;;7.30;69.62
55347;BME280;41218;55.700;38.270;2023-04-30T23:23:05;98895.78;;;7.34;69.48
55347;BME280;41218;55.700;38.270;2023-04-30T23:28:06;98894.59;;;7.35;69.38
55347;BME280;41218;55.700;38.270;2023-04-30T23:33:06;98883.50;;;7.28;69.36
55347;BME280;41218;55.700;38.270;2023-04-30T23:38:07;98884.72;;;7.31;69.42
55347;BME280;41218;55.700;38.270;2023-04-30T23:43:09;98887.03;;;7.29;69.79
55347;BME280;41218;55.700;38.270;2023-04-30T23:48:09;98894.44;;;7.25;69.96
55347;BME280;41218;55.700;38.270;2023-04-30T23:53:10;98887.75;;;7.26;70.03
55347;BME280;41218;55.700;38.270;2023-04-30T23:58:11;98904.31;;;7.29;69.94
